Terminal Aerodrome Forecast
Issued by NWS

Home | Current Version | Previous Version | Text Only | Print | Product List | Glossary On
Versions: 1 2 3 4 5 6 7 8 9 10 11 12 13 14 15 16 17 18 19 20 21 22 23 24 25 26 27 28 29 30 31 32 33 34 35 36 37 38 39 40 41 42 43 44 45 46 47 48 49
000
FTUS41 KBOX 311120
TAFMHT
TAF
KMHT 311120Z 3112/0112 VRB03KT P6SM BKN250
     FM311600 19006KT P6SM VCTS SCT050CB BKN060
     FM010000 20006KT P6SM BKN120
     FM010800 00000KT P6SM FEW250=

USA.gov is the U.S. government's official web portal to all federal, state and local government web resources and services.